Hauptseite
METAR-TAF:

METAR-TAF

Flughäfen :

Fliegerhorst Hohn

Hohn, Deutschland

Breite: 54-19N, Länge: 009-32E, Höhe: 12 m

Beobachtung

Neuester Wetterbericht von vor 1 Stunde und 11 Minuten, um 03:20 UTC
Wind 8 kt aus West
Temperatur 1°C
Luftfeuchtigkeit 86%
Luftdruck 1020 hPa
Sichtweite 10 km oder mehr

METAR: ETNH 190320Z AUTO 27008KT 9999 // ////// 01/M01 Q1020 ///

Zeit: 05:31 (04:31 UTC)

Prognose

Neuester Wetterbericht von vor 5 Stunden und 21 Minuten, um 23:10 UTC
Gültige Prognose vom 19 um 00 UTC bis 19 um 12 UTC
Wind 10 kt aus West, Böen bis zu 22 kt
Sichtweite 10 km oder mehr
Aufgelockert bewölkt in der Höhe von 3000 ft
Durchbrochene Bewölkung in der Höhe von 12000 ft

TAF: ETNH 182310Z 1900/1912 28010G22KT 9999 NSW SCT030 BKN120 BY ETGL

Wetterbeobachtungen und Prognosen von mehr als 4000 Flughäfen (METAR und TAF Bericht).

Die verfügbaren Stationen werden durch gelbe und rote Markierungen auf der Karte dargestellt.

Führen Sie die Maus auf sie, um den Namen der Station zu sehen.

Darauf klicken, um die Beobachtung von Wetterbeobachtungen und Prognosen zu sehen.

Um die Karte zu ändern : klicken Sie auf den grünen Tasten mit einem schwarzen Kreuz Zum Vergrößern, auf den grünen Button mit einem Gedankenstrich zu verkleinern, oder auf die grünen Pfeile für benachbarte Karten.


METAR-TAF: